Time;durP1;ratioP1;P1;durP2;ratioP2;P2;SDS_P1;SDS_P2;PMS_P1;PMS_P2;Temp;Humidity;BMP_temperature;BMP_pressure;BME280_temperature;BME280_humidity;BME280_pressure;Samples;Min_cycle;Max_cycle;Signal;HPM_P1;HPM_P2
2021/05/26 00:00:25;;;;;;;2.35;1.25;;;;;;;8.41;70.63;99760.63;5115904;28;20044;-52
2021/05/26 00:03:11;;;;;;;3.40;0.90;;;;;;;8.35;70.72;99753.75;5116741;28;20047;-53
2021/05/26 00:05:36;;;;;;;0.90;0.70;;;;;;;8.36;70.34;99757.22;5117032;28;20057;-52
2021/05/26 00:08:02;;;;;;;4.13;1.58;;;;;;;8.30;70.36;99754.72;5116994;28;20040;-52
2021/05/26 00:10:28;;;;;;;1.60;1.00;;;;;;;8.28;70.45;99752.09;5116931;28;20064;-52
2021/05/26 00:12:53;;;;;;;4.18;1.67;;;;;;;8.26;70.35;99756.50;5116616;28;20456;-52
2021/05/26 00:15:19;;;;;;;2.55;1.55;;;;;;;8.23;70.56;99758.31;5116614;28;20436;-52
2021/05/26 00:17:45;;;;;;;3.85;1.88;;;;;;;8.19;70.63;99753.16;5116842;28;20127;-52
2021/05/26 00:20:11;;;;;;;6.28;2.88;;;;;;;8.16;70.25;99754.94;5116495;28;20058;-52
2021/05/26 00:22:37;;;;;;;8.43;3.63;;;;;;;8.12;70.21;99754.09;5116814;28;20047;-52
2021/05/26 00:25:03;;;;;;;4.47;2.17;;;;;;;8.09;70.17;99759.41;5116766;28;20086;-52
2021/05/26 00:27:30;;;;;;;7.30;2.58;;;;;;;8.05;70.15;99764.66;5115516;28;20162;-52
2021/05/26 00:29:56;;;;;;;3.72;1.63;;;;;;;7.99;70.01;99765.63;5098965;28;20044;-52
2021/05/26 00:32:22;;;;;;;1.77;0.88;;;;;;;7.94;69.94;99768.31;5120338;28;20094;-52
2021/05/26 00:34:47;;;;;;;1.85;0.80;;;;;;;7.91;69.98;99759.66;5123478;28;20047;-51
2021/05/26 00:37:13;;;;;;;2.53;0.52;;;;;;;7.87;70.26;99755.41;5123266;27;20062;-53
2021/05/26 00:39:39;;;;;;;1.08;0.52;;;;;;;7.84;70.44;99769.34;5123519;27;20164;-53
2021/05/26 00:42:05;;;;;;;0.55;0.40;;;;;;;7.81;70.67;99764.16;5123441;27;20047;-52
2021/05/26 00:44:31;;;;;;;0.70;0.35;;;;;;;7.79;70.83;99765.91;5122268;28;20047;-53
2021/05/26 00:46:56;;;;;;;1.33;0.50;;;;;;;7.76;70.95;99755.53;5123153;27;20044;-53
2021/05/26 00:49:22;;;;;;;2.42;0.52;;;;;;;7.73;70.79;99771.22;5122099;28;20062;-53
2021/05/26 00:51:49;;;;;;;1.05;0.70;;;;;;;7.70;70.94;99773.88;5123124;27;20039;-52
2021/05/26 00:54:15;;;;;;;1.35;0.50;;;;;;;7.66;70.93;99764.38;5122929;27;20050;-52
2021/05/26 00:56:41;;;;;;;2.22;0.60;;;;;;;7.64;71.12;99766.16;5123322;27;20051;-53
2021/05/26 00:59:07;;;;;;;1.52;0.55;;;;;;;7.61;71.03;99766.19;5123293;27;20349;-52
2021/05/26 01:01:33;;;;;;;1.20;0.60;;;;;;;7.57;71.21;99769.69;5123227;27;20043;-52
2021/05/26 01:04:00;;;;;;;0.52;0.32;;;;;;;7.54;71.20;99767.13;5122962;27;20056;-52
2021/05/26 01:06:26;;;;;;;1.23;0.57;;;;;;;7.49;71.26;99769.81;5122040;28;20051;-52
2021/05/26 01:08:52;;;;;;;0.88;0.40;;;;;;;7.45;71.04;99782.03;5122978;27;20054;-52
2021/05/26 01:11:20;;;;;;;1.15;0.65;;;;;;;7.41;71.21;99779.47;5122048;28;20036;-52
2021/05/26 01:13:47;;;;;;;1.90;0.70;;;;;;;7.36;71.55;99774.31;5122660;27;20381;-52
2021/05/26 01:16:15;;;;;;;2.45;0.60;;;;;;;7.32;71.63;99764.81;5123111;27;20051;-52
2021/05/26 01:18:41;;;;;;;2.35;0.90;;;;;;;7.32;72.08;99772.63;5122235;28;20047;-52
2021/05/26 01:21:17;;;;;;;2.10;0.80;;;;;;;7.29;72.19;99770.06;5122289;28;20064;-52
2021/05/26 01:23:46;;;;;;;2.30;1.08;;;;;;;7.28;72.48;99768.34;5123087;27;20330;-52
2021/05/26 01:26:13;;;;;;;3.13;0.70;;;;;;;7.27;73.01;99769.22;5122204;28;20134;-52
2021/05/26 01:28:39;;;;;;;2.33;0.90;;;;;;;7.25;73.60;99765.78;5123010;27;20054;-52
2021/05/26 01:31:12;;;;;;;3.17;0.60;;;;;;;7.24;73.35;99774.47;5123074;27;20054;-53
2021/05/26 01:33:38;;;;;;;2.38;0.95;;;;;;;7.25;73.41;99774.47;5121784;28;20039;-52
2021/05/26 01:36:09;;;;;;;2.20;0.93;;;;;;;7.25;73.66;99763.19;5122680;27;20058;-52
2021/05/26 01:38:35;;;;;;;2.05;0.90;;;;;;;7.28;73.49;99764.88;5121782;28;20043;-52
2021/05/26 01:41:01;;;;;;;7.53;2.40;;;;;;;7.29;74.11;99764.00;5122576;27;20058;-53
2021/05/26 01:43:29;;;;;;;2.58;0.98;;;;;;;7.29;73.91;99759.66;5119928;27;20078;-52
2021/05/26 01:45:55;;;;;;;1.83;0.95;;;;;;;7.30;73.76;99756.16;5119436;28;20040;-53
2021/05/26 01:48:21;;;;;;;4.93;1.88;;;;;;;7.30;74.20;99761.38;5101818;28;20036;-52
2021/05/26 01:50:48;;;;;;;5.03;1.92;;;;;;;7.37;74.21;99767.34;5119550;28;20040;-52
2021/05/26 01:53:14;;;;;;;4.30;2.17;;;;;;;7.40;74.46;99768.19;5119443;28;20055;-52
2021/05/26 01:55:40;;;;;;;3.47;1.38;;;;;;;7.36;74.96;99765.66;5118374;28;20349;-51
2021/05/26 01:58:15;;;;;;;2.53;1.27;;;;;;;7.41;75.00;99767.31;5119152;28;20044;-52
2021/05/26 02:00:42;;;;;;;2.72;1.05;;;;;;;7.42;75.06;99766.44;5119602;28;20059;-51
2021/05/26 02:03:08;;;;;;;4.40;0.85;;;;;;;7.42;75.30;99760.34;5118221;28;20050;-52
2021/05/26 02:05:35;;;;;;;4.40;1.23;;;;;;;7.45;75.06;99763.78;5119282;28;20051;-52
2021/05/26 02:08:01;;;;;;;2.05;1.00;;;;;;;7.47;75.00;99768.97;5118567;28;20053;-52
2021/05/26 02:13:13;;;;;;;2.50;1.00;;;;;;;7.45;75.08;99766.38;5117904;28;20058;-53
2021/05/26 02:15:39;;;;;;;2.72;1.00;;;;;;;7.46;74.86;99768.09;5118099;28;20047;-52
2021/05/26 02:18:07;;;;;;;1.80;1.13;;;;;;;7.46;74.83;99768.09;5118418;28;20054;-52
2021/05/26 02:20:33;;;;;;;2.45;1.02;;;;;;;7.45;74.58;99768.13;5117703;28;20051;-52
2021/05/26 02:22:59;;;;;;;4.60;1.52;;;;;;;7.45;74.53;99775.97;5117996;28;20112;-53
2021/05/26 02:25:24;;;;;;;3.55;1.17;;;;;;;7.41;74.43;99771.63;5118644;27;20441;-52
2021/05/26 02:27:51;;;;;;;3.17;1.33;;;;;;;7.39;74.20;99774.28;5117954;28;20486;-52
2021/05/26 02:30:22;;;;;;;2.42;0.70;;;;;;;7.37;74.54;99773.44;5118534;28;20097;-51
2021/05/26 02:32:48;;;;;;;1.08;0.57;;;;;;;7.36;74.30;99774.31;5117946;28;20513;-52
2021/05/26 02:35:15;;;;;;;3.63;1.20;;;;;;;7.34;74.06;99777.81;5118649;28;20116;-52
2021/05/26 02:37:41;;;;;;;2.08;1.10;;;;;;;7.33;74.11;99776.97;5117677;28;20051;-52
2021/05/26 02:40:09;;;;;;;3.13;1.45;;;;;;;7.33;74.26;99771.75;5117427;28;20047;-52
2021/05/26 02:42:34;;;;;;;2.50;1.48;;;;;;;7.30;74.36;99766.56;5118519;28;20410;-52
2021/05/26 02:45:01;;;;;;;1.45;1.17;;;;;;;7.31;74.21;99770.03;5117872;28;20043;-53
2021/05/26 02:47:29;;;;;;;1.25;1.00;;;;;;;7.30;74.51;99771.78;5117372;28;20412;-52
2021/05/26 02:49:55;;;;;;;1.83;0.80;;;;;;;7.29;74.76;99772.69;5118428;28;20043;-52
2021/05/26 02:52:21;;;;;;;3.03;0.80;;;;;;;7.30;74.57;99774.38;5118382;28;20075;-53
2021/05/26 02:54:51;;;;;;;1.85;0.60;;;;;;;7.32;74.88;99780.47;5117224;28;20044;-52
2021/05/26 02:57:20;;;;;;;1.30;0.93;;;;;;;7.37;74.57;99780.38;5117690;28;20341;-52
2021/05/26 03:00:22;;;;;;;1.83;0.65;;;;;;;7.40;74.74;99780.34;5118489;28;20047;-52
2021/05/26 03:03:11;;;;;;;2.67;0.80;;;;;;;7.48;74.92;99783.75;5114932;28;20051;-52
2021/05/26 03:05:38;;;;;;;2.53;0.70;;;;;;;7.56;74.75;99775.81;5118363;27;20417;-52
2021/05/26 03:08:05;;;;;;;3.65;1.48;;;;;;;7.61;74.81;99780.09;5117233;28;20048;-52
2021/05/26 03:10:33;;;;;;;5.97;2.30;;;;;;;7.70;74.77;99774.75;5117936;28;20059;-52
2021/05/26 03:13:08;;;;;;;3.53;1.98;;;;;;;7.76;74.79;99779.00;5116622;28;20051;-52
2021/05/26 03:15:35;;;;;;;4.43;2.33;;;;;;;7.84;74.46;99782.38;5117669;28;20043;-52
2021/05/26 03:18:03;;;;;;;5.45;2.53;;;;;;;7.88;74.28;99791.00;5116911;28;20446;-53
2021/05/26 03:20:29;;;;;;;3.33;1.83;;;;;;;7.93;74.46;99784.84;5116638;28;20080;-52
2021/05/26 03:23:11;;;;;;;3.30;1.42;;;;;;;7.98;74.70;99787.38;5116667;28;20039;-52
2021/05/26 03:25:54;;;;;;;2.72;0.57;;;;;;;8.12;74.53;99785.41;5102771;28;20062;-52
2021/05/26 03:28:20;;;;;;;2.00;0.93;;;;;;;8.20;74.87;99783.56;5117683;28;20048;-52
2021/05/26 03:30:46;;;;;;;1.50;1.00;;;;;;;8.36;74.54;99780.72;5117580;28;20330;-52
2021/05/26 03:33:13;;;;;;;2.03;1.13;;;;;;;8.48;74.25;99785.75;5117515;28;20053;-52
2021/05/26 03:35:40;;;;;;;3.95;1.33;;;;;;;8.55;74.33;99781.31;5116868;28;20052;-53
2021/05/26 03:38:06;;;;;;;4.70;2.65;;;;;;;8.61;74.32;99779.44;5117476;28;20450;-52
2021/05/26 03:40:40;;;;;;;6.85;2.90;;;;;;;8.75;74.22;99784.41;5116535;28;20048;-52
2021/05/26 03:43:07;;;;;;;8.07;3.55;;;;;;;8.90;73.80;99783.25;5117320;28;20048;-53
2021/05/26 03:45:37;;;;;;;6.13;2.83;;;;;;;9.01;73.23;99776.09;5117410;28;20105;-52
2021/05/26 03:48:05;;;;;;;5.15;2.90;;;;;;;9.12;72.84;99778.50;5116211;28;20377;-53
2021/05/26 03:50:32;;;;;;;4.35;2.25;;;;;;;9.20;72.99;99773.13;5116586;28;20047;-52
2021/05/26 03:52:58;;;;;;;3.85;1.90;;;;;;;9.32;72.26;99772.88;5117118;28;20044;-53
2021/05/26 03:55:25;;;;;;;1.95;1.35;;;;;;;9.46;72.16;99768.22;5116317;28;20051;-53
2021/05/26 03:57:54;;;;;;;1.50;1.05;;;;;;;9.62;71.31;99774.00;5116197;28;20059;-52
2021/05/26 04:00:21;;;;;;;4.15;1.30;;;;;;;9.84;70.78;99776.97;5116828;28;20047;-53
2021/05/26 04:02:54;;;;;;;1.08;0.60;;;;;;;10.02;70.48;99775.72;5100062;28;20446;-52
2021/05/26 04:05:21;;;;;;;2.80;1.42;;;;;;;10.36;71.25;99765.31;5115814;28;20334;-52
2021/05/26 04:07:47;;;;;;;3.40;0.80;;;;;;;11.13;70.36;99765.91;5115353;28;20055;-52
2021/05/26 04:10:13;;;;;;;2.10;0.65;;;;;;;12.00;68.27;99773.00;5116710;28;20482;-53
2021/05/26 04:12:40;;;;;;;0.43;0.43;;;;;;;12.79;65.95;99766.88;5115587;28;20454;-53
2021/05/26 04:15:28;;;;;;;2.75;0.70;;;;;;;13.66;63.33;99765.50;5116855;28;20051;-53
2021/05/26 04:18:23;;;;;;;2.15;0.73;;;;;;;13.76;60.35;99769.47;5116531;28;20080;-53
2021/05/26 04:20:49;;;;;;;1.40;0.68;;;;;;;13.65;60.29;99772.53;5116524;28;20063;-53
2021/05/26 04:23:15;;;;;;;3.67;1.08;;;;;;;13.92;59.73;99765.34;5115698;28;20043;-53
2021/05/26 04:25:58;;;;;;;2.72;1.40;;;;;;;14.13;58.97;99766.25;5116234;28;20330;-53
2021/05/26 04:28:24;;;;;;;1.10;0.60;;;;;;;14.71;58.34;99755.09;5116136;28;20108;-53
2021/05/26 04:30:50;;;;;;;2.28;0.80;;;;;;;15.34;56.36;99769.03;5116598;28;20119;-53
2021/05/26 04:33:17;;;;;;;1.20;0.50;;;;;;;15.68;54.79;99764.00;5115482;28;20472;-53
2021/05/26 04:35:43;;;;;;;2.33;0.80;;;;;;;16.04;53.45;99764.91;5116707;28;20036;-53
2021/05/26 04:38:09;;;;;;;1.75;0.47;;;;;;;16.44;52.43;99751.50;5117221;28;20433;-53
2021/05/26 04:40:35;;;;;;;2.67;1.50;;;;;;;16.84;50.84;99749.53;5116679;28;20047;-53
2021/05/26 04:43:01;;;;;;;1.70;0.80;;;;;;;17.39;51.09;99750.13;5116562;28;20057;-53
2021/05/26 04:45:26;;;;;;;0.80;0.70;;;;;;;17.94;50.63;99746.25;5115736;28;20043;-53
2021/05/26 04:47:53;;;;;;;3.67;0.70;;;;;;;18.49;49.45;99750.16;5116572;28;20054;-53
2021/05/26 04:50:18;;;;;;;2.53;0.90;;;;;;;18.90;47.41;99742.44;5116337;28;20043;-53
2021/05/26 04:52:44;;;;;;;3.90;1.00;;;;;;;19.37;46.05;99739.53;5116542;28;20047;-53
2021/05/26 04:55:11;;;;;;;4.20;0.60;;;;;;;19.67;44.93;99735.06;5115588;28;20050;-54
2021/05/26 04:57:36;;;;;;;1.92;0.63;;;;;;;20.04;44.87;99745.00;5116714;28;20081;-53
2021/05/26 05:00:04;;;;;;;0.85;0.60;;;;;;;20.28;42.28;99744.38;5116697;28;20062;-53
2021/05/26 05:02:30;;;;;;;3.38;0.90;;;;;;;20.47;41.82;99742.19;5098373;28;20456;-47
2021/05/26 05:04:55;;;;;;;1.30;0.80;;;;;;;20.61;41.19;99746.59;5116483;28;20048;-53
2021/05/26 05:07:21;;;;;;;1.90;0.73;;;;;;;20.78;39.88;99748.13;5065640;28;20100;-53
2021/05/26 05:09:47;;;;;;;1.10;0.70;;;;;;;20.94;40.47;99740.78;5116399;28;20403;-54
2021/05/26 05:12:13;;;;;;;3.50;0.70;;;;;;;21.30;39.41;99741.00;5115284;28;20425;-52
2021/05/26 05:14:38;;;;;;;1.52;0.70;;;;;;;21.32;39.38;99745.25;5116298;28;20452;-53
2021/05/26 05:17:05;;;;;;;2.85;0.77;;;;;;;21.50;38.52;99753.78;5116733;28;20051;-54
2021/05/26 05:19:30;;;;;;;0.75;0.50;;;;;;;21.63;38.75;99749.28;5120182;28;20048;-54
2021/05/26 05:21:56;;;;;;;1.65;0.70;;;;;;;21.83;37.71;99752.31;5120156;28;20482;-54
2021/05/26 05:24:22;;;;;;;2.92;1.50;;;;;;;21.56;38.00;99747.16;5120131;28;20437;-54
2021/05/26 05:26:48;;;;;;;1.83;1.27;;;;;;;21.40;37.28;99742.06;5120110;28;20035;-54
2021/05/26 05:29:13;;;;;;;2.75;0.70;;;;;;;20.77;37.36;99735.78;5119980;27;20051;-54
2021/05/26 05:31:39;;;;;;;3.65;0.68;;;;;;;20.12;39.47;99739.22;5119708;28;20114;-54
2021/05/26 05:34:05;;;;;;;1.38;0.40;;;;;;;20.03;40.16;99738.00;5120681;28;20055;-54
2021/05/26 05:36:30;;;;;;;0.98;0.32;;;;;;;19.96;39.38;99744.66;5119636;28;20042;-54
2021/05/26 05:38:56;;;;;;;2.35;0.32;;;;;;;19.77;40.19;99747.66;5119532;28;20047;-54
2021/05/26 05:41:22;;;;;;;0.65;0.30;;;;;;;19.58;40.11;99750.59;5119796;28;20080;-54
2021/05/26 05:43:48;;;;;;;2.30;0.30;;;;;;;19.38;40.90;99757.16;5119430;27;20051;-54
2021/05/26 05:46:14;;;;;;;2.05;0.50;;;;;;;19.26;41.12;99757.91;5119681;28;20039;-54
2021/05/26 05:48:39;;;;;;;2.72;0.50;;;;;;;19.06;40.24;99745.00;5119638;28;20107;-54
2021/05/26 05:51:05;;;;;;;1.25;0.60;;;;;;;18.81;41.16;99745.63;5119622;28;20485;-54
2021/05/26 05:53:31;;;;;;;1.13;0.47;;;;;;;18.68;41.17;99741.03;5118364;28;20056;-54
2021/05/26 05:56:01;;;;;;;1.38;0.45;;;;;;;18.81;40.89;99741.16;5119193;28;20056;-54
2021/05/26 05:58:27;;;;;;;1.40;0.35;;;;;;;19.02;39.97;99754.13;5119179;28;20134;-53
2021/05/26 06:00:53;;;;;;;1.92;0.40;;;;;;;19.09;39.09;99748.31;5119255;27;20050;-54
2021/05/26 06:03:19;;;;;;;2.15;0.35;;;;;;;19.13;39.29;99741.88;5117950;28;20457;-54
2021/05/26 06:05:44;;;;;;;1.70;0.90;;;;;;;19.18;39.47;99740.75;5117327;28;20031;-54
2021/05/26 06:08:11;;;;;;;4.00;0.70;;;;;;;19.47;39.34;99726.53;5117311;28;20058;-54
2021/05/26 06:10:36;;;;;;;1.30;0.47;;;;;;;19.82;39.50;99736.72;5116950;28;20047;-54
2021/05/26 06:13:07;;;;;;;3.72;1.52;;;;;;;20.20;38.29;99736.03;5116996;28;20052;-54
2021/05/26 06:15:34;;;;;;;2.88;0.60;;;;;;;20.46;37.18;99736.97;5117579;28;20062;-54
2021/05/26 06:17:59;;;;;;;1.35;0.60;;;;;;;20.29;37.02;99738.94;5116333;28;20046;-54
2021/05/26 06:20:25;;;;;;;1.25;0.63;;;;;;;20.18;37.73;99738.81;5117328;28;20039;-54
2021/05/26 06:22:51;;;;;;;1.25;0.50;;;;;;;20.12;37.02;99739.22;5119300;27;20040;-54
2021/05/26 06:25:17;;;;;;;4.20;0.40;;;;;;;19.88;38.03;99738.13;5118202;28;20082;-54
2021/05/26 06:27:43;;;;;;;2.13;0.65;;;;;;;19.92;38.36;99744.94;5118604;28;20327;-54
2021/05/26 06:30:10;;;;;;;2.25;0.60;;;;;;;20.32;37.30;99743.22;5117016;28;20043;-54
2021/05/26 06:32:35;;;;;;;1.17;0.50;;;;;;;20.36;36.88;99741.19;5117614;28;20126;-54
2021/05/26 06:35:01;;;;;;;3.65;0.40;;;;;;;20.55;36.34;99741.69;5117833;28;20184;-53
2021/05/26 06:37:27;;;;;;;1.30;0.60;;;;;;;20.84;36.82;99739.72;5117883;28;20369;-54
2021/05/26 06:39:53;;;;;;;1.25;0.70;;;;;;;20.99;35.69;99740.44;5118685;28;20052;-54
2021/05/26 06:42:18;;;;;;;2.95;0.60;;;;;;;21.02;35.82;99741.09;5118608;28;20383;-54
2021/05/26 06:44:44;;;;;;;2.17;0.57;;;;;;;20.85;36.11;99740.56;5118560;28;20398;-53
2021/05/26 06:47:10;;;;;;;3.45;0.88;;;;;;;20.94;34.80;99742.59;5118521;28;20077;-54
2021/05/26 06:49:36;;;;;;;4.85;1.35;;;;;;;21.04;36.15;99742.81;5118490;28;20047;-54
2021/05/26 06:52:02;;;;;;;2.85;0.80;;;;;;;21.43;35.71;99745.38;5100856;28;20357;-54
2021/05/26 06:54:28;;;;;;;1.48;0.90;;;;;;;21.54;34.89;99741.09;5118290;27;20132;-54
2021/05/26 06:56:53;;;;;;;1.60;0.68;;;;;;;21.68;35.15;99747.13;5100557;28;20434;-54
2021/05/26 06:59:19;;;;;;;3.60;1.02;;;;;;;21.79;34.94;99746.34;5118283;28;20168;-54
2021/05/26 07:01:45;;;;;;;4.43;0.82;;;;;;;21.87;33.08;99736.00;5118238;28;20429;-54
2021/05/26 07:04:11;;;;;;;1.40;0.50;;;;;;;21.73;33.16;99738.81;5118150;28;20044;-54
2021/05/26 07:06:37;;;;;;;3.25;0.90;;;;;;;21.53;34.12;99742.06;5118396;28;20044;-54
2021/05/26 07:09:02;;;;;;;2.90;0.90;;;;;;;21.59;33.63;99737.13;5117751;28;20062;-54
2021/05/26 07:11:28;;;;;;;3.10;0.70;;;;;;;21.79;33.60;99734.84;5117210;28;20067;-54
2021/05/26 07:13:54;;;;;;;1.73;0.52;;;;;;;21.88;33.48;99729.69;5116637;28;20149;-54
2021/05/26 07:16:20;;;;;;;4.68;0.80;;;;;;;22.08;33.83;99740.72;5117950;28;20048;-54
2021/05/26 07:18:47;;;;;;;1.83;0.63;;;;;;;22.26;33.78;99736.72;5117577;28;20476;-54
2021/05/26 07:21:14;;;;;;;3.45;0.60;;;;;;;22.41;34.12;99734.69;5117818;28;20058;-54
2021/05/26 07:23:39;;;;;;;4.03;0.73;;;;;;;22.26;33.11;99742.06;5118194;27;20138;-54
2021/05/26 07:26:05;;;;;;;3.25;0.60;;;;;;;22.20;33.14;99736.28;5117688;28;20047;-54
2021/05/26 07:28:31;;;;;;;0.95;0.38;;;;;;;22.25;32.66;99729.66;5099932;28;20043;-54
2021/05/26 07:30:57;;;;;;;2.70;0.80;;;;;;;22.21;32.92;99730.88;5117438;28;20434;-54
2021/05/26 07:33:23;;;;;;;1.40;0.40;;;;;;;22.29;33.14;99727.63;5116648;28;20058;-54
2021/05/26 07:35:48;;;;;;;4.00;0.43;;;;;;;22.22;33.50;99729.88;5117605;28;20122;-54
2021/05/26 07:38:14;;;;;;;3.15;0.57;;;;;;;21.98;32.81;99729.88;5117794;28;20096;-54
2021/05/26 07:40:40;;;;;;;1.75;0.60;;;;;;;21.74;34.04;99735.16;5116558;28;20043;-54
2021/05/26 07:43:06;;;;;;;2.90;0.70;;;;;;;21.70;32.97;99741.69;5115872;28;20403;-54
2021/05/26 07:45:31;;;;;;;4.35;0.52;;;;;;;21.39;33.77;99735.91;5117371;28;20074;-54
2021/05/26 07:47:57;;;;;;;5.63;1.30;;;;;;;21.24;33.68;99739.59;5117682;28;20156;-54
2021/05/26 07:50:23;;;;;;;5.50;1.50;;;;;;;21.20;34.52;99730.13;5116343;28;20039;-54
2021/05/26 07:52:49;;;;;;;1.30;0.68;;;;;;;21.15;34.95;99734.91;5117246;28;20433;-54
2021/05/26 07:55:14;;;;;;;3.08;1.00;;;;;;;21.17;34.37;99727.69;5116121;28;20444;-54
2021/05/26 07:57:40;;;;;;;2.20;1.27;;;;;;;21.13;34.44;99721.72;5117151;28;20052;-54
2021/05/26 08:00:06;;;;;;;4.55;1.90;;;;;;;21.33;34.81;99717.66;5117190;28;20051;-54
2021/05/26 08:02:38;;;;;;;3.28;0.80;;;;;;;21.50;34.26;99720.97;5117158;28;20122;-54
2021/05/26 08:05:05;;;;;;;4.03;1.13;;;;;;;21.41;33.93;99714.47;5116827;28;20392;-54
2021/05/26 08:07:31;;;;;;;5.30;1.15;;;;;;;21.66;33.54;99722.41;5115856;28;20054;-54
2021/05/26 08:09:57;;;;;;;3.92;0.43;;;;;;;21.90;32.75;99725.13;5116780;28;20047;-55
2021/05/26 08:12:23;;;;;;;3.92;0.55;;;;;;;22.04;32.47;99708.09;5116497;28;20353;-54
2021/05/26 08:14:48;;;;;;;1.40;0.55;;;;;;;22.23;32.92;99710.28;5116906;27;20062;-54
2021/05/26 08:17:14;;;;;;;1.90;0.70;;;;;;;22.47;33.49;99710.22;5117415;28;20159;-55
2021/05/26 08:19:40;;;;;;;4.22;0.77;;;;;;;22.77;31.56;99704.34;5116887;28;20047;-55
2021/05/26 08:22:06;;;;;;;4.22;0.60;;;;;;;22.85;31.23;99701.09;5116535;28;20058;-55
2021/05/26 08:24:32;;;;;;;2.30;0.43;;;;;;;22.84;31.43;99710.06;5116932;28;20055;-54
2021/05/26 08:26:57;;;;;;;1.88;0.32;;;;;;;22.59;31.22;99706.63;5116789;28;20047;-54
2021/05/26 08:29:23;;;;;;;1.92;0.70;;;;;;;22.34;32.60;99696.97;5116773;28;20459;-55
2021/05/26 08:31:49;;;;;;;3.35;0.60;;;;;;;22.43;33.99;99713.25;5116754;28;20131;-55
2021/05/26 08:34:15;;;;;;;5.18;0.65;;;;;;;22.61;32.35;99706.50;5116386;28;20422;-55
2021/05/26 08:36:41;;;;;;;2.80;0.63;;;;;;;22.71;31.63;99707.50;5115696;28;20099;-55
2021/05/26 08:39:06;;;;;;;2.75;0.55;;;;;;;22.48;32.71;99714.59;5116690;28;20051;-55
2021/05/26 08:41:32;;;;;;;2.83;0.63;;;;;;;22.29;31.93;99707.13;5116649;28;20345;-55
2021/05/26 08:43:58;;;;;;;3.08;1.05;;;;;;;22.11;32.62;99709.34;5116330;28;20047;-55
2021/05/26 08:46:24;;;;;;;1.65;0.85;;;;;;;22.14;31.29;99701.09;5115476;28;20055;-55
2021/05/26 08:48:52;;;;;;;1.88;0.63;;;;;;;21.96;32.04;99710.47;5115397;28;20074;-55
2021/05/26 08:51:18;;;;;;;3.40;0.52;;;;;;;21.92;32.23;99698.31;5116575;28;20048;-55
2021/05/26 08:53:43;;;;;;;2.00;0.90;;;;;;;21.91;33.28;99708.16;5118423;28;20040;-54
2021/05/26 08:56:09;;;;;;;3.13;0.70;;;;;;;22.02;33.35;99703.81;5119516;28;20502;-54
2021/05/26 08:58:39;;;;;;;8.38;0.70;;;;;;;22.18;31.85;99699.09;5120158;28;20048;-55
2021/05/26 09:01:04;;;;;;;10.27;1.20;;;;;;;22.12;32.32;99691.50;5120501;28;20093;-56
2021/05/26 09:03:31;;;;;;;3.83;0.95;;;;;;;22.21;31.41;99692.69;5120514;28;20397;-55
2021/05/26 09:05:56;;;;;;;3.10;0.60;;;;;;;22.18;31.07;99688.41;5120690;28;20051;-55
2021/05/26 09:08:22;;;;;;;3.08;0.98;;;;;;;22.16;32.25;99688.56;5120174;28;20043;-55
2021/05/26 09:11:01;;;;;;;3.55;1.33;;;;;;;22.16;32.06;99682.34;5120091;28;20073;-55
2021/05/26 09:13:33;;;;;;;3.22;0.75;;;;;;;22.19;32.10;99682.09;5119688;28;20389;-55
2021/05/26 09:15:58;;;;;;;2.30;0.60;;;;;;;22.32;32.21;99668.69;5118161;27;20044;-55
2021/05/26 09:18:24;;;;;;;2.30;0.65;;;;;;;22.48;32.35;99684.41;5118033;28;20169;-55
2021/05/26 09:20:50;;;;;;;1.50;0.38;;;;;;;22.47;32.72;99674.69;5118203;28;20123;-55
2021/05/26 09:23:31;;;;;;;2.33;0.68;;;;;;;22.61;32.42;99679.81;5117859;28;20464;-55
2021/05/26 09:25:58;;;;;;;2.22;0.77;;;;;;;22.61;31.93;99674.47;5118305;28;20406;-55
2021/05/26 09:28:34;;;;;;;11.63;0.68;;;;;;;22.73;31.28;99676.19;5118023;28;20044;-55
2021/05/26 09:31:07;;;;;;;7.43;0.95;;;;;;;22.63;30.78;99673.41;5119013;28;20047;-55
2021/05/26 09:33:44;;;;;;;2.50;0.40;;;;;;;22.53;32.59;99666.22;5119078;28;20128;-55
2021/05/26 09:36:16;;;;;;;1.92;0.52;;;;;;;22.60;31.97;99673.63;5119775;28;20113;-55
2021/05/26 09:38:43;;;;;;;;;;;;;;;22.53;31.96;99677.75;5120639;28;20406;-55
2021/05/26 09:41:21;;;;;;;3.42;0.35;;;;;;;22.29;31.89;99671.59;5119516;28;20353;-55
2021/05/26 09:43:52;;;;;;;4.45;0.60;;;;;;;22.16;32.23;99661.88;5119532;28;20040;-55
2021/05/26 09:46:30;;;;;;;5.05;0.50;;;;;;;22.23;32.71;99666.72;5119728;28;20118;-55
2021/05/26 09:48:59;;;;;;;3.03;0.55;;;;;;;22.10;32.15;99664.97;5119716;28;20070;-55
2021/05/26 09:51:26;;;;;;;4.47;0.47;;;;;;;22.04;32.73;99654.75;5119641;28;20043;-55
2021/05/26 09:54:14;;;;;;;2.95;0.60;;;;;;;22.10;32.52;99667.63;5118567;28;20130;-55
2021/05/26 09:56:41;;;;;;;3.95;0.40;;;;;;;22.15;31.99;99654.81;5119892;28;20054;-55
2021/05/26 09:59:06;;;;;;;3.08;0.43;;;;;;;22.38;31.78;99654.91;5118617;28;20081;-55
2021/05/26 10:01:32;;;;;;;3.40;0.52;;;;;;;22.60;31.33;99652.28;5118429;28;20048;-55
2021/05/26 10:03:58;;;;;;;2.60;0.82;;;;;;;22.63;32.42;99660.06;5118018;28;20043;-55
2021/05/26 10:06:25;;;;;;;2.33;0.40;;;;;;;22.66;31.62;99648.28;5119360;28;20066;-55
2021/05/26 10:09:11;;;;;;;2.78;0.68;;;;;;;22.69;31.50;99645.38;5119305;28;20047;-55
2021/05/26 10:11:53;;;;;;;3.53;0.70;;;;;;;22.39;32.15;99638.78;5118418;28;20048;-55
2021/05/26 10:14:19;;;;;;;2.28;0.52;;;;;;;22.25;32.89;99636.31;5117894;28;20051;-55
2021/05/26 10:16:45;;;;;;;2.80;1.30;;;;;;;22.22;33.09;99625.88;5118264;28;20104;-55
2021/05/26 10:19:11;;;;;;;15.43;10.88;;;;;;;22.14;32.72;99629.09;5084472;28;20043;-54
2021/05/26 10:21:37;;;;;;;21.15;14.88;;;;;;;22.15;32.37;99621.94;5119366;28;20040;-55
2021/05/26 10:24:06;;;;;;;10.70;5.90;;;;;;;21.99;31.90;99627.59;5117777;28;20101;-55
2021/05/26 10:26:53;;;;;;;6.22;5.63;;;;;;;21.67;32.46;99629.97;5119241;28;20036;-55
2021/05/26 10:29:39;;;;;;;5.38;1.90;;;;;;;21.34;32.05;99633.25;5118634;28;20457;-55
2021/05/26 10:32:05;;;;;;;2.60;0.60;;;;;;;21.22;33.03;99633.19;5118361;28;20467;-55
2021/05/26 10:34:43;;;;;;;1.95;0.45;;;;;;;21.46;32.93;99624.41;5118521;28;20077;-54
2021/05/26 10:37:09;;;;;;;3.40;0.35;;;;;;;21.45;32.57;99636.06;5119004;28;20465;-55
2021/05/26 10:39:36;;;;;;;2.20;0.38;;;;;;;21.23;31.60;99626.91;5118958;28;20052;-54
2021/05/26 10:42:03;;;;;;;3.95;0.65;;;;;;;21.13;32.58;99599.25;5118303;28;20376;-54
2021/05/26 10:44:54;;;;;;;3.90;0.68;;;;;;;21.34;33.14;99626.13;5117710;28;20067;-54
2021/05/26 10:47:47;;;;;;;7.95;0.60;;;;;;;21.52;31.35;99628.47;5119070;28;20376;-55
2021/05/26 10:50:23;;;;;;;2.88;0.32;;;;;;;21.41;31.92;99623.91;5118503;28;20047;-54
2021/05/26 10:52:55;;;;;;;3.00;0.52;;;;;;;21.20;32.76;99621.81;5117634;28;20047;-54
2021/05/26 10:55:37;;;;;;;1.77;0.47;;;;;;;21.06;32.12;99629.06;5118825;28;20463;-54
2021/05/26 10:58:31;;;;;;;1.40;0.43;;;;;;;20.74;33.07;99625.06;5101095;28;20043;-54
2021/05/26 11:00:56;;;;;;;4.88;0.68;;;;;;;20.46;33.62;99614.59;5118303;28;20052;-54
2021/05/26 11:03:29;;;;;;;2.85;0.40;;;;;;;20.27;34.25;99607.03;5118243;28;20051;-54
2021/05/26 11:06:00;;;;;;;1.90;0.63;;;;;;;20.12;34.67;99605.44;5117863;28;20052;-54
2021/05/26 11:08:55;;;;;;;2.67;0.63;;;;;;;20.01;35.16;99606.97;5117866;28;20043;-54
2021/05/26 11:11:21;;;;;;;1.17;0.50;;;;;;;19.88;35.99;99600.78;5117846;28;20406;-54
2021/05/26 11:14:02;;;;;;;2.50;0.50;;;;;;;19.94;35.94;99599.53;5117662;28;20138;-54
2021/05/26 11:16:40;;;;;;;6.43;0.90;;;;;;;19.87;35.96;99604.41;5117424;28;20048;-54
2021/05/26 11:19:13;;;;;;;2.17;0.60;;;;;;;19.86;36.69;99597.41;5117901;28;20327;-54
2021/05/26 11:22:04;;;;;;;9.90;4.60;;;;;;;19.92;35.79;99597.00;5117606;28;20051;-55
2021/05/26 11:24:33;;;;;;;11.85;7.70;;;;;;;19.94;35.66;99594.22;5116959;28;20104;-54
2021/05/26 11:27:13;;;;;;;37.15;28.42;;;;;;;19.91;35.90;99591.78;5118567;28;20130;-54
2021/05/26 11:29:39;;;;;;;37.28;27.42;;;;;;;19.92;35.30;99594.34;5117738;28;20047;-55
2021/05/26 11:32:06;;;;;;;14.77;13.27;;;;;;;19.80;35.65;99588.03;5116641;28;20483;-54
2021/05/26 11:34:34;;;;;;;7.93;6.75;;;;;;;19.65;35.96;99607.63;5099993;28;20126;-54
2021/05/26 11:37:00;;;;;;;6.75;4.43;;;;;;;19.52;35.82;99599.56;5117295;28;20511;-55
2021/05/26 11:39:27;;;;;;;5.82;1.60;;;;;;;19.53;36.18;99589.81;5117512;28;20055;-54
2021/05/26 11:42:12;;;;;;;4.85;0.50;;;;;;;19.49;36.63;99602.44;5117478;28;20064;-54
2021/05/26 11:44:39;;;;;;;4.07;1.02;;;;;;;19.68;36.74;99598.63;5116373;28;20500;-54